Time;durP1;ratioP1;P1;durP2;ratioP2;P2;SDS_P1;SDS_P2;PMS_P1;PMS_P2;Temp;Humidity;BMP_temperature;BMP_pressure;BME280_temperature;BME280_humidity;BME280_pressure;Samples;Min_cycle;Max_cycle;Signal;HPM_P1;HPM_P2
2022/03/07 00:02:21;;;;;;;18.93;10.73;;;5.60;85.70;;;;;;5042129;28;20225;-76
2022/03/07 00:04:49;;;;;;;17.80;11.17;;;5.70;85.50;;;;;;5042958;28;20276;-76
2022/03/07 00:07:17;;;;;;;20.73;11.77;;;5.70;85.40;;;;;;5043469;28;20198;-76
2022/03/07 00:09:46;;;;;;;20.63;10.53;;;5.70;85.20;;;;;;5042688;28;20209;-77
2022/03/07 00:12:14;;;;;;;19.77;11.23;;;5.70;85.10;;;;;;5041778;28;20205;-76
2022/03/07 00:14:42;;;;;;;20.57;10.87;;;5.70;85.00;;;;;;5042164;28;20201;-76
2022/03/07 00:17:12;;;;;;;19.90;10.47;;;5.80;85.00;;;;;;5043307;28;20207;-76
2022/03/07 00:19:40;;;;;;;16.80;10.53;;;5.70;85.00;;;;;;5043471;28;20296;-77
2022/03/07 00:22:08;;;;;;;17.53;11.80;;;5.80;84.90;;;;;;5042906;28;20233;-76
2022/03/07 00:24:37;;;;;;;21.50;11.00;;;5.70;85.10;;;;;;5043206;28;20927;-76
2022/03/07 00:27:05;;;;;;;20.70;11.43;;;5.70;85.00;;;;;;5043580;28;20212;-75
2022/03/07 00:29:33;;;;;;;19.67;11.90;;;5.70;84.90;;;;;;5041787;28;20199;-77
2022/03/07 00:32:01;;;;;;;17.93;10.87;;;5.70;84.90;;;;;;5041275;28;20219;-76
2022/03/07 00:34:31;;;;;;;19.03;10.87;;;5.80;84.70;;;;;;5040601;28;20255;-76
2022/03/07 00:36:59;;;;;;;19.00;11.27;;;5.80;84.60;;;;;;5042538;28;20905;-76
2022/03/07 00:39:27;;;;;;;16.70;10.47;;;5.80;84.60;;;;;;5043877;28;20272;-76
2022/03/07 00:41:56;;;;;;;18.07;10.40;;;5.90;84.60;;;;;;5042766;28;20260;-75
2022/03/07 00:44:24;;;;;;;16.73;9.80;;;5.90;84.40;;;;;;5042671;28;20198;-75
2022/03/07 00:46:53;;;;;;;20.23;11.50;;;5.90;84.30;;;;;;5042967;28;20272;-75
2022/03/07 00:49:21;;;;;;;18.83;10.37;;;5.90;84.30;;;;;;5042433;28;20211;-75
2022/03/07 00:51:51;;;;;;;20.93;10.80;;;5.80;84.80;;;;;;5042072;28;20205;-76
2022/03/07 00:54:19;;;;;;;20.33;11.53;;;5.80;84.40;;;;;;5041920;28;20659;-75
2022/03/07 00:56:47;;;;;;;19.67;11.43;;;5.90;84.30;;;;;;5042581;28;20214;-74
2022/03/07 00:59:15;;;;;;;17.33;10.50;;;5.80;84.30;;;;;;5043125;28;20210;-76
2022/03/07 01:01:44;;;;;;;17.40;10.50;;;5.80;84.20;;;;;;5043342;28;20269;-76
2022/03/07 01:04:15;;;;;;;18.57;11.10;;;5.90;84.30;;;;;;5002482;28;20204;-75
2022/03/07 01:06:43;;;;;;;19.43;10.80;;;5.80;84.30;;;;;;5002623;28;20432;-76
2022/03/07 01:09:17;;;;;;;18.43;10.43;;;5.80;84.10;;;;;;5001420;28;20207;-76
2022/03/07 01:11:46;;;;;;;18.50;10.73;;;5.80;84.20;;;;;;5003094;28;20193;-74
2022/03/07 01:14:17;;;;;;;16.00;9.70;;;5.80;84.30;;;;;;5004788;28;20192;-75
2022/03/07 01:16:46;;;;;;;15.87;9.07;;;5.80;84.30;;;;;;5003198;28;20233;-75
2022/03/07 01:19:14;;;;;;;13.57;9.07;;;5.80;84.20;;;;;;5001442;28;20204;-74
2022/03/07 01:21:43;;;;;;;12.18;7.75;;;5.80;84.20;;;;;;5000449;28;21171;-74
2022/03/07 01:24:11;;;;;;;9.30;5.80;;;5.80;84.20;;;;;;5004498;28;20207;-74
2022/03/07 01:26:42;;;;;;;10.50;6.20;;;5.80;84.10;;;;;;5006854;28;20212;-75
2022/03/07 01:29:10;;;;;;;9.17;5.50;;;5.80;84.10;;;;;;5004140;28;20207;-75
2022/03/07 01:31:38;;;;;;;9.20;5.37;;;5.70;84.00;;;;;;5004965;28;20731;-74
2022/03/07 01:34:07;;;;;;;11.23;5.30;;;5.70;83.80;;;;;;5006016;28;20227;-75
2022/03/07 01:36:35;;;;;;;7.90;4.83;;;5.70;83.80;;;;;;5005499;28;20204;-75
2022/03/07 01:39:03;;;;;;;9.30;4.90;;;5.60;84.60;;;;;;5006431;28;20211;-75
2022/03/07 01:41:32;;;;;;;8.33;4.60;;;5.60;83.60;;;;;;5005287;28;20203;-75
2022/03/07 01:44:01;;;;;;;8.53;4.70;;;5.60;83.60;;;;;;5006226;28;20552;-75
2022/03/07 01:46:32;;;;;;;7.85;5.07;;;5.60;83.40;;;;;;5004171;28;20969;-75
2022/03/07 01:49:00;;;;;;;7.57;4.77;;;5.60;83.80;;;;;;5006483;28;20226;-75
2022/03/07 01:51:28;;;;;;;8.43;4.73;;;5.50;84.00;;;;;;5005719;28;20197;-74
2022/03/07 01:53:57;;;;;;;7.23;5.10;;;5.60;83.80;;;;;;5006151;28;20203;-74
2022/03/07 01:56:25;;;;;;;10.83;4.63;;;5.50;83.60;;;;;;5005341;28;20204;-74
2022/03/07 01:58:53;;;;;;;9.83;5.13;;;5.60;83.60;;;;;;5006604;28;20207;-74
2022/03/07 02:01:23;;;;;;;10.37;5.47;;;5.60;83.50;;;;;;5005568;28;20774;-75
2022/03/07 02:03:51;;;;;;;9.77;5.50;;;5.60;83.50;;;;;;5040274;28;20983;-75
2022/03/07 02:06:21;;;;;;;11.00;5.73;;;5.60;83.50;;;;;;5042900;28;20226;-75
2022/03/07 02:08:50;;;;;;;12.13;5.60;;;5.60;83.60;;;;;;5045570;28;20198;-76
2022/03/07 02:11:19;;;;;;;11.00;6.17;;;5.60;83.60;;;;;;5044177;28;20656;-76
2022/03/07 02:13:47;;;;;;;9.13;5.87;;;5.60;83.50;;;;;;5045649;28;20206;-76
2022/03/07 02:16:17;;;;;;;9.87;5.87;;;5.60;83.50;;;;;;5044371;28;20213;-75
2022/03/07 02:18:48;;;;;;;10.47;6.03;;;5.60;83.50;;;;;;5044334;28;20264;-75
2022/03/07 02:21:18;;;;;;;10.33;6.53;;;5.60;83.40;;;;;;5044044;28;20222;-75
2022/03/07 02:23:48;;;;;;;9.20;5.63;;;5.60;83.40;;;;;;5043647;28;20191;-75
2022/03/07 02:26:18;;;;;;;10.97;6.30;;;5.60;83.40;;;;;;5046881;28;20588;-75
2022/03/07 02:28:47;;;;;;;12.40;6.70;;;5.60;83.30;;;;;;5043769;28;20195;-76
2022/03/07 02:31:18;;;;;;;12.77;6.40;;;5.70;84.20;;;;;;5043916;28;20718;-76
2022/03/07 02:33:46;;;;;;;12.00;6.73;;;5.70;83.30;;;;;;5045259;28;20201;-76
2022/03/07 02:36:15;;;;;;;10.97;6.37;;;5.70;83.30;;;;;;5041773;28;20320;-76
2022/03/07 02:38:43;;;;;;;13.77;6.20;;;5.70;83.30;;;;;;5044017;28;20304;-76
2022/03/07 02:41:12;;;;;;;10.70;5.97;;;5.70;83.30;;;;;;5044778;28;20209;-75
2022/03/07 02:43:43;;;;;;;11.03;6.93;;;5.70;83.10;;;;;;5045100;28;20629;-76
2022/03/07 02:46:11;;;;;;;11.33;6.43;;;5.70;83.10;;;;;;5043559;28;20199;-76
2022/03/07 02:48:40;;;;;;;11.17;5.70;;;5.70;83.00;;;;;;5045138;28;20276;-75
2022/03/07 02:51:08;;;;;;;9.67;6.27;;;5.70;83.10;;;;;;5042797;28;20210;-76
2022/03/07 02:53:37;;;;;;;12.63;6.63;;;5.70;83.80;;;;;;5045726;28;20241;-75
2022/03/07 02:56:05;;;;;;;12.33;5.90;;;5.70;82.90;;;;;;5044995;28;20202;-76
2022/03/07 02:58:35;;;;;;;11.70;6.37;;;5.70;82.90;;;;;;5045009;28;20896;-76
2022/03/07 03:01:06;;;;;;;12.57;6.10;;;5.80;82.80;;;;;;5042537;28;20202;-76
2022/03/07 03:03:34;;;;;;;11.40;5.93;;;5.80;82.80;;;;;;5043567;28;20259;-75
2022/03/07 03:06:04;;;;;;;11.57;5.87;;;5.80;82.80;;;;;;5044472;28;20209;-76
2022/03/07 03:08:32;;;;;;;10.50;6.20;;;5.80;82.70;;;;;;5042632;28;20228;-76
2022/03/07 03:11:01;;;;;;;10.53;5.53;;;5.70;82.50;;;;;;5044337;28;20274;-76
2022/03/07 03:13:30;;;;;;;11.03;5.53;;;5.70;82.30;;;;;;5044316;28;20205;-75
2022/03/07 03:15:59;;;;;;;10.00;5.50;;;5.70;82.20;;;;;;5042267;28;20202;-75
2022/03/07 03:18:28;;;;;;;8.93;5.17;;;5.70;82.20;;;;;;5043925;28;20644;-75
2022/03/07 03:20:56;;;;;;;9.13;5.23;;;5.70;82.20;;;;;;5042172;28;20198;-75
2022/03/07 03:23:24;;;;;;;10.37;5.53;;;5.70;82.10;;;;;;5043127;28;20827;-75
2022/03/07 03:25:55;;;;;;;9.50;5.57;;;5.70;82.00;;;;;;5041492;28;20849;-75
2022/03/07 03:28:24;;;;;;;10.37;5.37;;;5.70;82.10;;;;;;5041264;28;21675;-75
2022/03/07 03:30:56;;;;;;;9.00;5.70;;;5.70;82.00;;;;;;5044337;28;20192;-76
2022/03/07 03:33:26;;;;;;;9.43;5.83;;;5.70;82.00;;;;;;5044164;28;20198;-75
2022/03/07 03:35:57;;;;;;;9.93;5.80;;;5.70;82.00;;;;;;5045147;28;20248;-76
2022/03/07 03:38:26;;;;;;;10.90;5.33;;;5.70;81.90;;;;;;5045006;28;20848;-76
2022/03/07 03:40:54;;;;;;;9.67;5.50;;;5.80;82.10;;;;;;5045635;28;20214;-75
2022/03/07 03:43:22;;;;;;;9.57;5.17;;;5.70;82.20;;;;;;5046066;28;20203;-75
2022/03/07 03:45:51;;;;;;;9.57;5.67;;;5.70;82.10;;;;;;5043062;28;20704;-75
2022/03/07 03:48:19;;;;;;;10.73;5.47;;;5.70;81.90;;;;;;5043505;28;20851;-75
2022/03/07 03:50:48;;;;;;;7.97;4.73;;;5.80;82.00;;;;;;5043244;28;20259;-75
2022/03/07 03:53:17;;;;;;;8.73;5.20;;;5.70;81.80;;;;;;5045479;28;20217;-75
2022/03/07 03:55:45;;;;;;;9.50;4.93;;;5.80;81.80;;;;;;5043362;28;20208;-75
2022/03/07 03:58:13;;;;;;;10.40;5.07;;;5.70;81.60;;;;;;5042644;28;20209;-76
2022/03/07 04:00:42;;;;;;;10.43;5.07;;;5.80;81.50;;;;;;5043764;28;20199;-75
2022/03/07 04:03:10;;;;;;;8.13;4.80;;;5.70;81.90;;;;;;5043565;28;20234;-75
2022/03/07 04:05:39;;;;;;;9.87;5.70;;;5.70;81.20;;;;;;5042623;28;20295;-75
2022/03/07 04:08:08;;;;;;;11.20;6.10;;;5.70;81.20;;;;;;5043250;28;20843;-75
2022/03/07 04:10:37;;;;;;;13.53;7.00;;;5.70;81.00;;;;;;5042920;28;20201;-75
2022/03/07 04:13:05;;;;;;;13.20;7.00;;;5.70;81.10;;;;;;5042445;28;20207;-75
2022/03/07 04:15:38;;;;;;;12.33;6.47;;;5.80;81.10;;;;;;5042197;28;20206;-75
2022/03/07 04:18:07;;;;;;;11.37;6.20;;;5.70;80.90;;;;;;5041458;28;20751;-76
2022/03/07 04:20:35;;;;;;;15.10;7.50;;;5.70;80.90;;;;;;5043372;28;20202;-75
2022/03/07 04:23:04;;;;;;;13.47;8.17;;;5.70;80.90;;;;;;5041966;28;20202;-75
2022/03/07 04:25:36;;;;;;;12.77;6.93;;;5.60;80.90;;;;;;5043133;28;20204;-75
2022/03/07 04:28:05;;;;;;;10.83;6.50;;;5.60;81.00;;;;;;5041869;28;20220;-75
2022/03/07 04:30:34;;;;;;;14.33;5.83;;;5.60;80.90;;;;;;5041723;28;20198;-75
2022/03/07 04:33:02;;;;;;;11.53;6.50;;;5.50;81.00;;;;;;5043485;28;20248;-75
2022/03/07 04:35:30;;;;;;;11.10;6.00;;;5.50;81.00;;;;;;5044405;28;20272;-75
2022/03/07 04:38:00;;;;;;;14.83;7.10;;;5.50;81.00;;;;;;5042734;28;20205;-75
2022/03/07 04:40:29;;;;;;;10.97;6.33;;;5.50;81.30;;;;;;5041997;28;20204;-74
2022/03/07 04:42:58;;;;;;;12.03;5.90;;;5.40;81.30;;;;;;5042203;28;20570;-75
2022/03/07 04:45:27;;;;;;;10.27;6.03;;;5.40;81.40;;;;;;5041966;28;20206;-74
2022/03/07 04:47:55;;;;;;;12.00;6.43;;;5.40;81.40;;;;;;5040051;28;20627;-75
2022/03/07 04:50:23;;;;;;;11.60;7.07;;;5.40;81.50;;;;;;5043564;28;20211;-75
2022/03/07 04:52:52;;;;;;;17.23;8.57;;;5.40;81.60;;;;;;5042652;28;20209;-74
2022/03/07 04:55:20;;;;;;;13.37;8.00;;;5.40;81.60;;;;;;5042315;28;20729;-75
2022/03/07 04:57:48;;;;;;;15.67;8.23;;;5.40;81.70;;;;;;5041095;28;20198;-75
2022/03/07 05:00:19;;;;;;;16.87;8.80;;;5.30;81.90;;;;;;5046723;28;20632;-76
2022/03/07 05:02:47;;;;;;;16.77;7.73;;;5.30;82.00;;;;;;5046438;28;20236;-75
2022/03/07 05:05:15;;;;;;;15.27;7.80;;;5.30;82.90;;;;;;5046820;28;20260;-76
2022/03/07 05:07:44;;;;;;;12.27;7.13;;;5.20;82.00;;;;;;5045819;28;20955;-74
2022/03/07 05:10:12;;;;;;;12.87;7.43;;;5.20;82.10;;;;;;5046792;28;20680;-76
2022/03/07 05:12:40;;;;;;;14.40;7.30;;;5.30;82.10;;;;;;5047775;28;20265;-76
2022/03/07 05:15:09;;;;;;;14.57;7.03;;;5.30;82.00;;;;;;5047382;28;20896;-75
2022/03/07 05:17:46;;;;;;;13.60;6.87;;;5.30;82.00;;;;;;5045366;28;20197;-75
2022/03/07 05:20:16;;;;;;;12.63;6.97;;;5.30;82.00;;;;;;5045101;28;20198;-75
2022/03/07 05:22:45;;;;;;;12.73;6.70;;;5.30;82.00;;;;;;5045352;28;20664;-75
2022/03/07 05:25:15;;;;;;;12.77;7.07;;;5.30;82.00;;;;;;5045817;28;20199;-74
2022/03/07 05:27:44;;;;;;;14.13;6.63;;;5.30;82.00;;;;;;5044120;28;20956;-74
2022/03/07 05:30:15;;;;;;;11.03;6.37;;;5.30;82.80;;;;;;5047961;28;20272;-74
2022/03/07 05:32:45;;;;;;;12.30;6.60;;;5.30;81.90;;;;;;5044634;28;20259;-75
2022/03/07 05:35:14;;;;;;;12.37;6.87;;;5.30;81.90;;;;;;5045180;28;20198;-75
2022/03/07 05:37:42;;;;;;;13.83;7.07;;;5.30;82.00;;;;;;5046688;28;20201;-76
2022/03/07 05:40:12;;;;;;;16.83;8.20;;;5.40;81.90;;;;;;5045405;28;20716;-76
2022/03/07 05:42:41;;;;;;;11.63;6.93;;;5.40;82.10;;;;;;5043750;28;20209;-75
2022/03/07 05:45:11;;;;;;;15.00;8.07;;;5.40;82.00;;;;;;5046294;28;20210;-75
2022/03/07 05:47:39;;;;;;;15.70;8.03;;;5.40;82.00;;;;;;5046687;28;20774;-75
2022/03/07 05:53:44;;;;;;;15.80;8.60;;;5.50;82.10;;;;;;5030097;28;20288;-75
2022/03/07 05:56:12;;;;;;;14.80;8.67;;;5.40;82.00;;;;;;5045933;28;20210;-75
2022/03/07 05:58:41;;;;;;;16.43;8.33;;;5.50;82.20;;;;;;5045685;28;20202;-75
2022/03/07 06:01:09;;;;;;;15.77;8.93;;;5.50;82.10;;;;;;5044131;28;20448;-76
2022/03/07 06:03:37;;;;;;;12.60;7.27;;;5.50;82.40;;;;;;5041364;28;20227;-75
2022/03/07 06:06:06;;;;;;;17.40;8.47;;;5.50;82.30;;;;;;5044494;28;20231;-75
2022/03/07 06:08:35;;;;;;;16.60;8.10;;;5.50;82.10;;;;;;5045528;28;20213;-75
2022/03/07 06:11:05;;;;;;;18.23;7.77;;;5.50;81.90;;;;;;5041989;28;20198;-74
2022/03/07 06:13:33;;;;;;;15.63;7.20;;;5.50;82.20;;;;;;5044448;28;20195;-75
2022/03/07 06:16:02;;;;;;;13.50;7.17;;;5.50;82.10;;;;;;5045571;28;20269;-75
2022/03/07 06:18:30;;;;;;;12.53;7.10;;;5.50;82.10;;;;;;5046546;28;20229;-75
2022/03/07 06:20:58;;;;;;;14.10;7.27;;;5.50;81.60;;;;;;5045941;28;20210;-75
2022/03/07 06:23:27;;;;;;;12.30;6.67;;;5.60;81.70;;;;;;5044382;28;20206;-74
2022/03/07 06:25:55;;;;;;;13.07;6.87;;;5.60;81.70;;;;;;5048002;28;20217;-75
2022/03/07 06:28:25;;;;;;;12.87;6.37;;;5.70;81.80;;;;;;5045299;28;20283;-74
2022/03/07 06:30:53;;;;;;;11.77;7.53;;;5.70;81.60;;;;;;5044548;28;20546;-74
2022/03/07 06:33:21;;;;;;;15.67;6.57;;;5.80;81.60;;;;;;5046386;28;20252;-74
2022/03/07 06:35:49;;;;;;;12.07;7.20;;;5.80;81.50;;;;;;5044222;28;20265;-74
2022/03/07 06:38:19;;;;;;;12.40;7.03;;;5.90;81.50;;;;;;5046359;28;20214;-74
2022/03/07 06:40:47;;;;;;;14.33;7.00;;;6.00;81.50;;;;;;5042688;28;20209;-74
2022/03/07 06:43:16;;;;;;;13.03;7.07;;;6.00;81.30;;;;;;5045219;28;20210;-75
2022/03/07 06:45:46;;;;;;;11.00;6.10;;;6.10;80.90;;;;;;5044256;28;20199;-75
2022/03/07 06:48:14;;;;;;;10.47;6.33;;;6.10;80.80;;;;;;5045765;28;20836;-75
2022/03/07 06:50:42;;;;;;;11.27;6.20;;;6.00;80.30;;;;;;5046038;28;20389;-76
2022/03/07 06:53:10;;;;;;;9.97;5.97;;;6.10;80.30;;;;;;5045930;28;20823;-75
2022/03/07 06:55:39;;;;;;;13.00;6.50;;;6.20;80.40;;;;;;5045433;28;20841;-79
2022/03/07 06:58:07;;;;;;;13.10;6.53;;;6.30;80.40;;;;;;5045100;28;20211;-76
2022/03/07 07:00:36;;;;;;;13.73;6.97;;;6.30;80.10;;;;;;5045143;28;20203;-74
2022/03/07 07:03:06;;;;;;;10.30;6.50;;;6.40;80.20;;;;;;5043980;28;20230;-75
2022/03/07 07:05:34;;;;;;;10.13;6.47;;;6.40;80.10;;;;;;5045292;28;20245;-75
2022/03/07 07:08:04;;;;;;;11.95;7.70;;;6.40;79.40;;;;;;5043935;28;20438;-75
2022/03/07 07:10:32;;;;;;;10.70;6.63;;;6.40;79.70;;;;;;5042239;28;20222;-76
2022/03/07 07:13:00;;;;;;;10.93;6.37;;;6.50;79.60;;;;;;5044703;28;20830;-75
2022/03/07 07:15:29;;;;;;;12.07;6.07;;;6.60;79.70;;;;;;5046509;28;20291;-75
2022/03/07 07:17:57;;;;;;;10.87;5.93;;;6.70;79.40;;;;;;5046054;28;20199;-76
2022/03/07 07:20:27;;;;;;;11.37;5.40;;;6.80;78.60;;;;;;5043307;28;20445;-76
2022/03/07 07:22:55;;;;;;;9.43;5.10;;;6.80;78.50;;;;;;5044459;28;20199;-76
2022/03/07 07:25:24;;;;;;;10.00;5.00;;;6.90;78.50;;;;;;5045564;28;20205;-76
2022/03/07 07:27:52;;;;;;;8.80;5.23;;;6.90;78.30;;;;;;5044649;28;20286;-76
2022/03/07 07:30:22;;;;;;;10.03;5.67;;;7.00;78.30;;;;;;5043623;28;20697;-76
2022/03/07 07:32:51;;;;;;;11.37;5.83;;;7.00;77.30;;;;;;5042611;28;20829;-76
2022/03/07 07:35:19;;;;;;;10.07;5.73;;;7.10;77.20;;;;;;5043693;28;20206;-77
2022/03/07 07:37:49;;;;;;;9.03;5.37;;;7.20;77.20;;;;;;5044760;28;20199;-76
2022/03/07 07:40:19;;;;;;;12.93;6.60;;;7.20;76.90;;;;;;5043283;28;20202;-77
2022/03/07 07:42:48;;;;;;;11.80;6.33;;;7.20;76.60;;;;;;5043047;28;20253;-76
2022/03/07 07:45:17;;;;;;;10.83;5.20;;;7.30;76.60;;;;;;5043869;28;20215;-77
2022/03/07 07:47:51;;;;;;;10.40;5.80;;;7.40;75.90;;;;;;5044354;28;21626;-77
2022/03/07 07:50:20;;;;;;;8.17;5.53;;;7.40;75.80;;;;;;5044970;28;20314;-76
2022/03/07 07:52:50;;;;;;;7.47;4.70;;;7.50;75.40;;;;;;5043337;28;20219;-76
2022/03/07 07:55:19;;;;;;;7.67;4.10;;;7.60;75.90;;;;;;5043699;28;20614;-76
2022/03/07 07:57:47;;;;;;;8.80;5.28;;;7.70;75.40;;;;;;5043297;28;20449;-77
2022/03/07 08:00:19;;;;;;;9.37;4.90;;;7.70;75.40;;;;;;5045623;28;20212;-77
2022/03/07 08:02:50;;;;;;;8.13;5.03;;;7.80;75.80;;;;;;5043883;28;20631;-76
2022/03/07 08:05:19;;;;;;;9.40;4.73;;;7.90;75.60;;;;;;5045362;28;20248;-78
2022/03/07 08:07:49;;;;;;;8.70;4.80;;;8.00;75.70;;;;;;5045266;28;20206;-80
2022/03/07 08:10:19;;;;;;;7.97;5.07;;;8.10;75.50;;;;;;5047283;28;20248;-82
2022/03/07 08:12:49;;;;;;;7.60;4.30;;;8.10;75.20;;;;;;5048225;28;20552;-81
2022/03/07 08:15:20;;;;;;;7.10;4.43;;;8.20;74.70;;;;;;5047192;28;20814;-80
2022/03/07 08:17:50;;;;;;;7.40;4.43;;;8.30;73.70;;;;;;5044516;28;20212;-79
2022/03/07 08:20:22;;;;;;;6.53;4.00;;;8.40;73.90;;;;;;5045864;28;20285;-80
2022/03/07 08:22:53;;;;;;;8.57;5.10;;;8.40;73.20;;;;;;5045311;28;20194;-80
2022/03/07 08:25:22;;;;;;;8.37;4.83;;;8.50;72.70;;;;;;5042753;28;20206;-79
2022/03/07 08:27:50;;;;;;;7.93;5.30;;;8.50;72.60;;;;;;5044730;28;20675;-80
2022/03/07 08:30:21;;;;;;;8.30;5.40;;;8.60;72.40;;;;;;5041814;28;20217;-78
2022/03/07 08:32:50;;;;;;;9.47;5.63;;;8.60;71.50;;;;;;5042050;28;20194;-80
2022/03/07 08:35:19;;;;;;;11.23;5.70;;;8.60;71.90;;;;;;5042973;28;21432;-79
2022/03/07 08:37:49;;;;;;;11.70;5.43;;;8.70;72.10;;;;;;5045008;28;20208;-79
2022/03/07 08:40:21;;;;;;;10.00;5.23;;;8.70;72.50;;;;;;5044429;28;20198;-79
2022/03/07 08:42:49;;;;;;;9.67;5.47;;;8.80;72.40;;;;;;5044638;28;20921;-77
2022/03/07 08:45:20;;;;;;;8.33;4.70;;;8.80;72.60;;;;;;5042504;28;20198;-78
2022/03/07 08:47:55;;;;;;;8.90;4.70;;;8.80;71.70;;;;;;5042801;28;20661;-78
2022/03/07 08:50:23;;;;;;;8.03;4.80;;;8.80;71.90;;;;;;5042697;28;20233;-78
2022/03/07 08:52:52;;;;;;;8.37;5.17;;;8.90;72.10;;;;;;5042672;28;20213;-80
2022/03/07 08:55:21;;;;;;;10.40;5.78;;;8.90;71.80;;;;;;5044470;28;20945;-78
2022/03/07 08:57:50;;;;;;;9.33;5.17;;;9.00;71.30;;;;;;5045981;28;20201;-78
2022/03/07 09:00:19;;;;;;;8.53;4.73;;;9.00;71.50;;;;;;5053888;28;20190;-80
2022/03/07 09:02:47;;;;;;;7.77;5.07;;;9.00;71.30;;;;;;5050149;28;20832;-82
2022/03/07 09:05:16;;;;;;;7.33;4.33;;;9.10;71.20;;;;;;5048400;28;20209;-79
2022/03/07 09:07:45;;;;;;;8.50;5.43;;;9.10;71.10;;;;;;5043102;28;20816;-80
2022/03/07 09:10:13;;;;;;;8.10;5.10;;;9.20;70.00;;;;;;5043494;28;20260;-80
2022/03/07 09:12:43;;;;;;;7.73;4.80;;;9.20;70.10;;;;;;5043211;28;20203;-81
2022/03/07 09:15:14;;;;;;;8.30;5.17;;;9.20;69.70;;;;;;5041212;28;20202;-79
2022/03/07 09:17:43;;;;;;;9.30;5.40;;;9.20;69.90;;;;;;5043066;28;20218;-82
2022/03/07 09:20:13;;;;;;;11.17;5.70;;;9.20;70.10;;;;;;5041687;28;20532;-81
2022/03/07 09:22:41;;;;;;;8.67;5.27;;;9.20;69.90;;;;;;5042593;28;20202;-82
2022/03/07 09:25:11;;;;;;;8.60;5.47;;;9.20;69.70;;;;;;5041353;28;20282;-82
2022/03/07 09:27:42;;;;;;;7.07;4.87;;;9.20;69.80;;;;;;5043185;28;20202;-84
2022/03/07 09:30:15;;;;;;;9.73;5.47;;;9.20;69.80;;;;;;5040954;28;20203;-81
2022/03/07 09:32:43;;;;;;;9.33;5.83;;;9.20;69.40;;;;;;5041842;28;21650;-81
2022/03/07 09:35:14;;;;;;;8.80;5.13;;;9.10;69.50;;;;;;5041704;28;20839;-81
2022/03/07 09:37:42;;;;;;;8.93;5.10;;;9.10;69.30;;;;;;5043072;28;20321;-81
2022/03/07 09:40:14;;;;;;;8.53;5.50;;;9.20;69.60;;;;;;5049920;28;20194;-81
2022/03/07 09:42:46;;;;;;;9.50;5.23;;;9.20;68.90;;;;;;5048575;28;20226;-81
2022/03/07 09:45:21;;;;;;;8.17;4.60;;;9.30;68.70;;;;;;5050964;28;20637;-79
2022/03/07 09:47:50;;;;;;;9.23;5.80;;;9.30;68.80;;;;;;5059114;28;20194;-80
2022/03/07 09:50:20;;;;;;;8.27;5.30;;;9.30;68.70;;;;;;5062618;28;20218;-79
2022/03/07 09:52:49;;;;;;;9.13;5.40;;;9.30;68.70;;;;;;5060861;28;20222;-83
2022/03/07 09:55:18;;;;;;;9.20;6.10;;;9.30;68.50;;;;;;5049620;28;20622;-82
2022/03/07 09:57:48;;;;;;;7.73;4.90;;;9.40;68.60;;;;;;5044608;28;20218;-82
2022/03/07 10:00:19;;;;;;;12.17;5.37;;;9.40;68.50;;;;;;5043098;28;20198;-82
2022/03/07 10:02:56;;;;;;;7.20;4.90;;;9.40;67.90;;;;;;5044673;28;20633;-84
2022/03/07 10:05:27;;;;;;;8.47;5.60;;;9.50;67.80;;;;;;5046578;28;20819;-83
2022/03/07 10:07:56;;;;;;;8.77;5.43;;;9.50;67.30;;;;;;5045907;28;20201;-83
2022/03/07 10:10:31;;;;;;;8.43;5.07;;;9.50;67.30;;;;;;5046175;28;20242;-86
2022/03/07 10:13:05;;;;;;;10.63;5.37;;;9.50;67.80;;;;;;5047544;28;20302;-83
2022/03/07 10:15:36;;;;;;;9.90;5.40;;;9.40;67.40;;;;;;5045788;28;20255;-83
2022/03/07 10:18:05;;;;;;;11.40;5.70;;;9.40;67.60;;;;;;5047195;28;20206;-83
2022/03/07 10:20:33;;;;;;;9.67;5.57;;;9.40;67.00;;;;;;5046463;28;20192;-85
2022/03/07 10:23:02;;;;;;;9.60;5.80;;;9.40;66.80;;;;;;5045174;28;20866;-81
2022/03/07 10:25:38;;;;;;;11.33;5.87;;;9.30;67.00;;;;;;5045439;28;20428;-83
2022/03/07 10:28:08;;;;;;;12.07;6.43;;;9.20;66.70;;;;;;5046730;28;20206;-82
2022/03/07 10:30:43;;;;;;;12.23;6.47;;;9.20;67.20;;;;;;5044461;28;20206;-83
2022/03/07 10:33:13;;;;;;;9.00;4.70;;;9.20;67.50;;;;;;5045794;28;20272;-79
2022/03/07 10:35:43;;;;;;;8.43;5.23;;;9.20;67.40;;;;;;5045895;28;20198;-78
2022/03/07 10:38:13;;;;;;;7.17;4.40;;;9.30;67.50;;;;;;5045680;28;20744;-77
2022/03/07 10:40:43;;;;;;;10.33;5.77;;;9.40;67.10;;;;;;5046158;28;20247;-78
2022/03/07 10:43:12;;;;;;;8.07;5.07;;;9.40;67.00;;;;;;5044479;28;20248;-76
2022/03/07 10:45:50;;;;;;;8.07;4.83;;;9.60;67.40;;;;;;5045155;28;20298;-77
2022/03/07 10:48:20;;;;;;;8.90;5.27;;;9.60;66.20;;;;;;5044282;28;20201;-77
2022/03/07 10:50:51;;;;;;;8.70;5.27;;;9.80;66.20;;;;;;5045440;28;20210;-78
2022/03/07 10:53:20;;;;;;;10.17;5.20;;;9.90;66.70;;;;;;5046060;28;20248;-77
2022/03/07 10:55:53;;;;;;;9.33;4.90;;;10.00;66.70;;;;;;5044962;28;20195;-78
2022/03/07 10:58:22;;;;;;;7.40;4.87;;;10.00;67.20;;;;;;5045317;28;20240;-79
2022/03/07 11:00:55;;;;;;;9.20;5.30;;;10.00;66.30;;;;;;5045577;28;20653;-78
2022/03/07 11:03:25;;;;;;;8.67;5.27;;;10.00;66.20;;;;;;5045281;28;20710;-78
2022/03/07 11:05:54;;;;;;;8.83;5.70;;;10.10;65.20;;;;;;5045255;28;20241;-77
2022/03/07 11:08:24;;;;;;;9.57;5.90;;;10.00;64.20;;;;;;5047199;28;20202;-79
2022/03/07 11:10:54;;;;;;;9.10;5.75;;;10.10;65.00;;;;;;5043315;28;20447;-79
2022/03/07 11:13:26;;;;;;;9.67;5.57;;;10.10;64.50;;;;;;5044082;28;20199;-78
2022/03/07 11:15:58;;;;;;;7.93;4.87;;;10.10;64.00;;;;;;5045307;28;20241;-79
2022/03/07 11:18:30;;;;;;;9.60;5.77;;;10.20;64.50;;;;;;5046092;28;20197;-80
2022/03/07 11:21:00;;;;;;;9.13;5.30;;;10.20;64.70;;;;;;5045026;28;20224;-79
2022/03/07 11:23:28;;;;;;;9.63;5.80;;;10.20;64.90;;;;;;5044182;28;20626;-79
2022/03/07 11:25:59;;;;;;;9.07;5.90;;;10.10;64.80;;;;;;5044346;28;20194;-79
2022/03/07 11:28:29;;;;;;;7.53;5.40;;;10.10;64.80;;;;;;5043297;28;20199;-78
2022/03/07 11:31:00;;;;;;;10.00;5.83;;;10.00;64.80;;;;;;5044430;28;20259;-78
2022/03/07 11:33:37;;;;;;;8.17;5.23;;;10.00;65.20;;;;;;5044961;28;20206;-79
2022/03/07 11:36:15;;;;;;;8.10;5.13;;;10.00;64.10;;;;;;5043483;28;20290;-78
2022/03/07 11:38:51;;;;;;;11.07;5.43;;;9.90;64.20;;;;;;5044347;28;20233;-78
2022/03/07 11:41:25;;;;;;;8.70;4.90;;;9.90;64.10;;;;;;5042527;28;20209;-78
2022/03/07 11:43:56;;;;;;;8.23;4.50;;;9.90;63.30;;;;;;5043217;28;20199;-79
2022/03/07 11:46:29;;;;;;;8.23;5.17;;;9.90;63.70;;;;;;5044112;28;20187;-80
2022/03/07 11:48:57;;;;;;;10.53;4.87;;;9.80;62.80;;;;;;5044001;28;20771;-77
2022/03/07 11:51:30;;;;;;;11.87;5.47;;;9.80;63.60;;;;;;5046131;28;20313;-80
2022/03/07 11:53:59;;;;;;;7.07;4.10;;;9.80;63.60;;;;;;5043961;28;20203;-78
2022/03/07 11:56:30;;;;;;;7.07;4.30;;;9.80;63.40;;;;;;5044969;28;20840;-80
2022/03/07 11:59:03;;;;;;;7.50;4.20;;;9.80;62.70;;;;;;5047907;28;20187;-78
2022/03/07 12:01:34;;;;;;;6.93;4.20;;;9.70;62.90;;;;;;5046526;28;20199;-79
2022/03/07 12:04:11;;;;;;;7.63;4.80;;;9.70;62.80;;;;;;5043200;28;21647;-82
2022/03/07 12:06:47;;;;;;;7.63;4.60;;;9.70;63.30;;;;;;5042618;28;20205;-78
2022/03/07 12:09:26;;;;;;;8.47;4.40;;;9.70;63.40;;;;;;5048317;28;20202;-79
2022/03/07 12:11:59;;;;;;;8.83;4.60;;;9.70;63.40;;;;;;5041529;28;20221;-80
2022/03/07 12:14:29;;;;;;;9.47;4.87;;;9.70;63.80;;;;;;5045919;28;20274;-79
2022/03/07 12:17:01;;;;;;;8.70;4.80;;;9.70;63.70;;;;;;5046713;28;20212;-81
2022/03/07 12:19:30;;;;;;;7.47;4.70;;;9.60;63.60;;;;;;5043224;28;20270;-79
2022/03/07 12:22:09;;;;;;;8.03;4.50;;;9.60;63.70;;;;;;5044454;28;20260;-79
2022/03/07 12:24:37;;;;;;;7.27;4.53;;;9.60;63.90;;;;;;5043200;28;20198;-80
2022/03/07 12:27:06;;;;;;;11.43;6.23;;;9.60;64.10;;;;;;5039878;28;20198;-80
2022/03/07 12:29:35;;;;;;;13.77;7.07;;;9.50;63.90;;;;;;5039961;28;20202;-79
2022/03/07 12:32:06;;;;;;;9.93;5.60;;;9.60;64.20;;;;;;5038582;28;20244;-79
2022/03/07 12:34:37;;;;;;;6.53;4.33;;;9.50;64.10;;;;;;5041506;28;20187;-79
2022/03/07 12:37:08;;;;;;;7.03;4.20;;;9.50;63.70;;;;;;5041549;28;20205;-80
2022/03/07 12:39:44;;;;;;;8.20;4.43;;;9.50;63.70;;;;;;5041768;28;20926;-79
2022/03/07 12:42:13;;;;;;;6.63;4.53;;;9.50;64.10;;;;;;5041851;28;20204;-80
2022/03/07 12:44:43;;;;;;;9.73;5.10;;;9.50;63.70;;;;;;5041708;28;20671;-78
2022/03/07 12:47:13;;;;;;;11.37;4.93;;;9.40;63.90;;;;;;5042062;28;20202;-79
2022/03/07 12:49:51;;;;;;;7.73;4.90;;;9.40;64.30;;;;;;5041974;28;20203;-79
2022/03/07 12:52:26;;;;;;;9.63;5.97;;;9.40;64.60;;;;;;5040522;28;20252;-79
2022/03/07 12:54:58;;;;;;;7.73;4.97;;;9.40;64.70;;;;;;5006537;28;20198;-78
2022/03/07 12:57:30;;;;;;;8.87;5.00;;;9.40;64.80;;;;;;5040153;28;20202;-80
2022/03/07 13:00:12;;;;;;;10.77;5.80;;;9.50;64.90;;;;;;5039047;28;20202;-79
2022/03/07 13:02:59;;;;;;;7.37;4.90;;;9.50;64.70;;;;;;5039448;28;20224;-80
2022/03/07 13:05:44;;;;;;;8.37;5.30;;;9.50;64.60;;;;;;5037766;28;20191;-80
2022/03/07 13:08:27;;;;;;;7.83;4.80;;;9.50;64.50;;;;;;5046173;28;20217;-79